Time;durP1;ratioP1;P1;durP2;ratioP2;P2;SDS_P1;SDS_P2;PMS_P1;PMS_P2;Temp;Humidity;BMP_temperature;BMP_pressure;BME280_temperature;BME280_humidity;BME280_pressure;Samples;Min_cycle;Max_cycle;Signal;HPM_P1;HPM_P2
2023/04/20 00:00:09;;;;;;;7.15;5.53;;;;;;;7.43;74.25;98068.38;4189867;28;20208;-82
2023/04/20 00:02:17;;;;;;;7.47;5.30;;;;;;;7.38;74.60;98060.88;4185400;28;20300;-81
2023/04/20 00:04:21;;;;;;;8.93;5.53;;;;;;;7.32;74.45;98056.03;4190421;28;20663;-82
2023/04/20 00:06:28;;;;;;;8.18;5.00;;;;;;;7.29;74.89;98055.34;4180478;28;20206;-82
2023/04/20 00:08:31;;;;;;;6.13;5.40;;;;;;;7.27;74.94;98052.84;4179631;28;20599;-82
2023/04/20 00:10:34;;;;;;;6.75;5.70;;;;;;;7.26;74.37;98050.34;4189285;28;20215;-82
2023/04/20 00:12:37;;;;;;;6.57;5.55;;;;;;;7.24;74.05;98047.00;4179198;28;20212;-82
2023/04/20 00:14:40;;;;;;;8.10;6.30;;;;;;;7.19;74.27;98049.84;4160557;28;20975;-82
2023/04/20 00:16:43;;;;;;;8.60;6.13;;;;;;;7.14;74.96;98036.31;4181207;28;20209;-82
2023/04/20 00:18:48;;;;;;;7.55;6.15;;;;;;;7.12;74.78;98039.91;4171888;28;22127;-82
2023/04/20 00:20:51;;;;;;;7.75;6.10;;;;;;;7.10;75.75;98039.97;4185604;28;20728;-82
2023/04/20 00:22:55;;;;;;;6.30;5.40;;;;;;;7.09;75.27;98032.28;4185037;28;20217;-82
2023/04/20 00:24:58;;;;;;;11.65;5.88;;;;;;;6.99;75.60;98025.09;4189776;28;20245;-82
2023/04/20 00:27:01;;;;;;;7.35;6.53;;;;;;;6.93;75.02;98025.44;4188798;28;20660;-82
2023/04/20 00:29:04;;;;;;;7.90;6.50;;;;;;;6.93;75.42;98025.44;4183264;28;20299;-82
2023/04/20 00:31:07;;;;;;;9.38;5.90;;;;;;;6.86;75.10;98017.19;4184123;28;20221;-82
2023/04/20 00:33:10;;;;;;;7.65;6.32;;;;;;;6.80;75.82;98019.28;4187034;28;20212;-82
2023/04/20 00:35:15;;;;;;;6.90;5.93;;;;;;;6.77;75.67;98009.91;4185049;28;20236;-82
2023/04/20 00:37:19;;;;;;;8.50;6.20;;;;;;;6.70;76.00;98007.72;4186735;28;20207;-82
2023/04/20 00:39:22;;;;;;;8.98;6.22;;;;;;;6.65;76.60;98009.75;4173092;28;20219;-82
2023/04/20 00:41:26;;;;;;;11.45;6.32;;;;;;;6.57;76.92;98006.75;4189026;28;20222;-82
2023/04/20 00:43:29;;;;;;;8.43;6.00;;;;;;;6.53;76.80;98005.22;4182953;28;20199;-82
2023/04/20 00:45:32;;;;;;;7.15;6.20;;;;;;;6.45;76.66;98007.41;4183230;28;20213;-82
2023/04/20 00:47:35;;;;;;;7.30;6.40;;;;;;;6.45;77.20;98001.34;4175522;28;20197;-82
2023/04/20 00:49:38;;;;;;;11.60;6.93;;;;;;;6.40;77.28;97999.00;4167528;28;20218;-82
2023/04/20 00:51:43;;;;;;;9.73;6.53;;;;;;;6.37;77.72;97995.75;4180180;28;20211;-82
2023/04/20 00:53:46;;;;;;;9.10;6.90;;;;;;;6.32;78.24;97996.00;4181204;28;20205;-82
2023/04/20 00:55:50;;;;;;;8.15;7.07;;;;;;;6.28;78.17;97983.31;4186213;28;20199;-82
2023/04/20 00:57:53;;;;;;;11.75;7.20;;;;;;;6.28;78.01;97993.66;4187375;28;20304;-82
2023/04/20 00:59:57;;;;;;;7.63;6.57;;;;;;;6.21;78.44;97982.81;4180782;28;20244;-82
2023/04/20 01:02:00;;;;;;;9.02;6.63;;;;;;;6.16;78.58;97986.53;4180090;28;20206;-82
2023/04/20 01:04:03;;;;;;;9.65;6.80;;;;;;;6.18;77.91;97993.31;4186641;28;20198;-82
2023/04/20 01:06:07;;;;;;;9.80;7.43;;;;;;;6.10;78.19;97981.69;4174566;28;20246;-82
2023/04/20 01:08:11;;;;;;;10.48;7.47;;;;;;;6.01;78.81;97973.56;4191307;28;20227;-82
2023/04/20 01:10:14;;;;;;;9.55;6.95;;;;;;;5.77;79.40;97973.09;4187183;28;20309;-82
2023/04/20 01:12:17;;;;;;;9.80;7.60;;;;;;;5.72;80.15;97966.44;4187456;28;20309;-82
2023/04/20 01:14:20;;;;;;;9.18;6.90;;;;;;;5.61;79.28;97961.00;4192913;28;20294;-82
2023/04/20 01:16:25;;;;;;;7.40;6.18;;;;;;;5.49;79.07;97960.75;4186939;28;20210;-82
2023/04/20 01:18:28;;;;;;;8.80;7.20;;;;;;;5.41;78.71;97956.00;4184120;28;20677;-81
2023/04/20 01:20:32;;;;;;;7.70;6.70;;;;;;;5.37;78.82;97953.66;4187932;28;20705;-82
2023/04/20 01:22:46;;;;;;;8.27;6.30;;;;;;;5.35;79.76;97951.13;4186804;28;20202;-81
2023/04/20 01:24:49;;;;;;;8.52;7.25;;;;;;;5.34;80.08;97949.44;4175998;28;20221;-82
2023/04/20 01:26:52;;;;;;;8.38;6.30;;;;;;;5.31;80.37;97949.59;4182752;28;20260;-82
2023/04/20 01:28:55;;;;;;;8.75;7.35;;;;;;;5.28;80.60;97949.75;4183333;28;20234;-82
2023/04/20 01:30:58;;;;;;;8.63;7.10;;;;;;;5.28;80.98;97942.00;4175276;28;20203;-81
2023/04/20 01:33:01;;;;;;;11.25;8.10;;;;;;;5.25;80.53;97939.56;4188537;28;20298;-81
2023/04/20 01:35:06;;;;;;;7.90;7.10;;;;;;;5.26;80.55;97941.25;4188618;28;20253;-81
2023/04/20 01:37:09;;;;;;;9.23;7.50;;;;;;;5.26;80.98;97941.25;4173481;28;20650;-81
2023/04/20 01:39:16;;;;;;;9.13;7.22;;;;;;;5.24;81.36;97930.13;4188068;28;20225;-81
2023/04/20 01:41:20;;;;;;;8.45;7.03;;;;;;;5.20;81.06;97922.59;4182267;28;20219;-81
2023/04/20 01:43:24;;;;;;;9.63;7.53;;;;;;;5.18;81.09;97930.44;4178398;28;20210;-81
2023/04/20 01:45:27;;;;;;;8.80;6.88;;;;;;;5.16;81.06;97921.94;4203954;28;20568;-81
2023/04/20 01:47:30;;;;;;;11.85;6.93;;;;;;;5.15;82.05;97922.84;4188328;28;20943;-81
2023/04/20 01:49:35;;;;;;;9.88;7.10;;;;;;;5.14;80.79;97923.78;4193531;28;20205;-81
2023/04/20 01:51:38;;;;;;;9.40;7.38;;;;;;;5.13;81.54;97922.09;4177687;28;20214;-81
2023/04/20 01:53:41;;;;;;;8.25;7.13;;;;;;;5.13;81.50;97918.69;4189971;28;20214;-81
2023/04/20 01:55:45;;;;;;;9.90;7.10;;;;;;;5.16;82.07;97919.34;4189676;28;20214;-81
2023/04/20 01:57:49;;;;;;;10.60;7.30;;;;;;;5.15;81.02;97912.50;4174693;28;20234;-81
2023/04/20 01:59:52;;;;;;;10.15;7.03;;;;;;;5.14;81.92;97905.69;4169093;28;20348;-81
2023/04/20 02:01:55;;;;;;;8.15;6.75;;;;;;;5.15;81.61;97902.16;4188862;28;20254;-81
2023/04/20 02:03:59;;;;;;;8.35;7.10;;;;;;;5.12;81.81;97903.25;4170019;28;20206;-81
2023/04/20 02:06:02;;;;;;;9.15;7.70;;;;;;;5.16;80.73;97903.03;4183094;28;20755;-81
2023/04/20 02:08:05;;;;;;;9.68;7.28;;;;;;;5.13;81.21;97904.00;4188353;28;20606;-81
2023/04/20 02:10:09;;;;;;;7.85;7.05;;;;;;;5.10;80.91;97905.06;4189255;28;20241;-81
2023/04/20 02:12:14;;;;;;;10.43;6.70;;;;;;;5.04;80.94;97898.47;4171204;28;20254;-81
2023/04/20 02:14:17;;;;;;;8.95;6.90;;;;;;;5.00;81.48;97899.50;4189334;28;20261;-82
2023/04/20 02:16:20;;;;;;;8.50;6.50;;;;;;;5.00;81.35;97896.09;4172947;28;20285;-81
2023/04/20 02:18:24;;;;;;;8.93;6.68;;;;;;;5.01;82.17;97893.44;4182489;28;20249;-81
2023/04/20 02:20:27;;;;;;;8.02;6.85;;;;;;;5.04;82.49;97897.63;4188890;28;20303;-81
2023/04/20 02:22:33;;;;;;;10.48;6.63;;;;;;;5.05;81.89;97894.97;4172801;28;20749;-82
2023/04/20 02:24:36;;;;;;;7.72;6.60;;;;;;;5.03;82.10;97886.44;4187273;28;20214;-81
2023/04/20 02:26:39;;;;;;;9.82;6.78;;;;;;;5.05;81.29;97886.38;4186142;28;20211;-81
2023/04/20 02:28:44;;;;;;;7.72;6.47;;;;;;;4.97;81.48;97886.75;4169683;28;20210;-81
2023/04/20 02:30:47;;;;;;;7.10;6.40;;;;;;;4.97;81.68;97886.75;4183085;28;20208;-82
2023/04/20 02:32:50;;;;;;;7.03;6.25;;;;;;;5.00;81.58;97878.03;4175696;28;20211;-81
2023/04/20 02:34:53;;;;;;;8.52;6.50;;;;;;;4.99;81.76;97882.34;4190241;28;20242;-81
2023/04/20 02:36:56;;;;;;;8.07;6.72;;;;;;;4.99;81.70;97874.63;4189140;28;20206;-82
2023/04/20 02:39:00;;;;;;;7.53;6.00;;;;;;;5.01;81.67;97874.53;4171839;28;20231;-82
2023/04/20 02:41:03;;;;;;;7.68;6.50;;;;;;;5.04;82.08;97866.63;4171985;28;20749;-81
2023/04/20 02:43:06;;;;;;;7.57;6.20;;;;;;;5.05;81.83;97868.28;4184226;28;20642;-81
2023/04/20 02:45:12;;;;;;;7.55;6.43;;;;;;;5.11;82.56;97862.81;4179851;28;20261;-81
2023/04/20 02:47:18;;;;;;;9.60;6.30;;;;;;;5.12;82.30;97857.56;4168473;28;20223;-81
2023/04/20 02:49:21;;;;;;;11.02;7.18;;;;;;;5.13;82.03;97862.66;4185967;28;20198;-81
2023/04/20 02:51:24;;;;;;;10.10;6.80;;;;;;;5.12;82.58;97859.31;4187729;28;20214;-81
2023/04/20 02:53:28;;;;;;;7.20;6.15;;;;;;;5.11;82.20;97857.63;4172910;28;20210;-81
2023/04/20 02:55:47;;;;;;;9.57;5.93;;;;;;;5.06;81.89;97859.63;4183208;28;20282;-81
2023/04/20 02:58:04;;;;;;;7.20;6.10;;;;;;;5.00;81.72;97860.75;4185695;28;20301;-81
2023/04/20 03:00:41;;;;;;;10.20;6.50;;;;;;;5.01;80.89;97861.63;4182246;28;20225;-81
2023/04/20 03:02:45;;;;;;;7.70;6.03;;;;;;;4.99;82.02;97874.63;4189740;28;20220;-82
2023/04/20 03:04:49;;;;;;;7.60;6.38;;;;;;;5.00;82.27;97870.28;4186310;28;20256;-81
2023/04/20 03:06:55;;;;;;;8.13;6.80;;;;;;;5.03;81.79;97870.13;4168608;28;20210;-81
2023/04/20 03:09:03;;;;;;;6.88;6.18;;;;;;;5.03;82.26;97864.94;4174555;28;20211;-81
2023/04/20 03:11:29;;;;;;;9.25;6.50;;;;;;;4.88;80.92;97861.38;4186001;28;20685;-81
2023/04/20 03:13:33;;;;;;;8.82;6.85;;;;;;;4.86;80.75;97857.22;4192285;28;20241;-81
2023/04/20 03:15:37;;;;;;;7.22;6.40;;;;;;;4.73;80.95;97856.97;4167610;28;20894;-81
2023/04/20 03:17:56;;;;;;;8.73;7.25;;;;;;;4.70;81.25;97851.94;4168302;28;20891;-82
2023/04/20 03:20:00;;;;;;;9.40;7.30;;;;;;;4.67;81.14;97863.34;4187742;28;20244;-81
2023/04/20 03:22:03;;;;;;;8.52;6.82;;;;;;;4.56;80.25;97858.72;4189785;28;20212;-81
2023/04/20 03:24:08;;;;;;;10.55;7.43;;;;;;;4.52;82.17;97852.00;4181246;28;20206;-81
2023/04/20 03:26:12;;;;;;;8.00;6.60;;;;;;;4.49;81.53;97857.31;4166234;28;20279;-81
2023/04/20 03:28:35;;;;;;;8.98;6.55;;;;;;;4.47;81.47;97851.41;4183864;28;20686;-81
2023/04/20 03:30:38;;;;;;;9.70;6.97;;;;;;;4.51;82.32;97850.34;4180031;28;20202;-81
2023/04/20 03:32:48;;;;;;;8.43;7.07;;;;;;;4.57;83.17;97851.78;4168748;28;20237;-81
2023/04/20 03:34:53;;;;;;;10.88;7.35;;;;;;;4.67;83.39;97856.44;4170155;28;20221;-81
2023/04/20 03:36:56;;;;;;;9.80;7.43;;;;;;;4.70;83.61;97856.28;4170406;28;20226;-81
2023/04/20 03:38:59;;;;;;;9.63;7.05;;;;;;;4.80;83.33;97862.69;4182816;28;20220;-82
2023/04/20 03:41:03;;;;;;;23.30;13.63;;;;;;;4.70;81.80;97857.09;4179878;28;20238;-81
2023/04/20 03:43:06;;;;;;;15.30;10.40;;;;;;;4.68;82.53;97854.72;4170500;28;20210;-81
2023/04/20 03:45:10;;;;;;;11.40;8.30;;;;;;;4.65;82.13;97852.28;4162272;28;20267;-82
2023/04/20 03:47:13;;;;;;;14.57;10.40;;;;;;;4.64;82.37;97846.25;4169434;28;20226;-81
2023/04/20 03:49:16;;;;;;;11.73;8.90;;;;;;;4.60;82.38;97844.75;4185678;28;20205;-81
2023/04/20 03:51:21;;;;;;;10.57;8.48;;;;;;;4.57;83.01;97844.03;4186978;28;20264;-82
2023/04/20 03:53:24;;;;;;;14.27;9.38;;;;;;;4.57;82.78;97849.19;4184821;28;20293;-81
2023/04/20 03:55:27;;;;;;;9.80;8.00;;;;;;;4.57;82.93;97850.06;4182824;28;20225;-81
2023/04/20 03:57:37;;;;;;;10.00;7.90;;;;;;;4.59;83.57;97850.81;4187520;28;20245;-81
2023/04/20 03:59:41;;;;;;;8.63;7.15;;;;;;;4.57;83.67;97849.19;4182703;28;20283;-82
2023/04/20 04:01:47;;;;;;;10.30;7.85;;;;;;;4.52;83.15;97841.69;4183110;28;20305;-81
2023/04/20 04:03:51;;;;;;;9.82;7.45;;;;;;;4.56;83.40;97837.22;4156802;28;20206;-81
2023/04/20 04:05:55;;;;;;;9.32;7.65;;;;;;;4.51;82.75;97840.03;4171888;28;20238;-81
2023/04/20 04:07:59;;;;;;;9.00;7.35;;;;;;;4.46;82.21;97841.97;4193034;28;20205;-81
2023/04/20 04:10:04;;;;;;;10.88;8.23;;;;;;;4.42;82.13;97837.91;4181012;28;20309;-81
2023/04/20 04:12:08;;;;;;;9.75;8.05;;;;;;;4.41;82.58;97835.38;4171376;28;20569;-81
2023/04/20 04:14:12;;;;;;;11.98;8.50;;;;;;;4.40;83.05;97829.38;4165240;28;20206;-81
2023/04/20 04:16:16;;;;;;;11.63;8.82;;;;;;;4.40;83.46;97834.53;4187537;28;20209;-81
2023/04/20 04:18:20;;;;;;;11.57;8.57;;;;;;;4.38;82.63;97832.94;4174164;28;20357;-81
2023/04/20 04:20:24;;;;;;;11.18;8.80;;;;;;;4.35;82.97;97821.03;4183754;28;20323;-81
2023/04/20 04:22:28;;;;;;;15.20;9.57;;;;;;;4.36;83.55;97830.44;4168669;28;20212;-81
2023/04/20 04:24:53;;;;;;;11.88;9.25;;;;;;;4.34;83.36;97826.25;4184086;28;20213;-82
2023/04/20 04:26:57;;;;;;;10.65;8.98;;;;;;;4.34;83.12;97827.09;4188879;28;20204;-81
2023/04/20 04:29:03;;;;;;;10.65;8.50;;;;;;;4.32;82.65;97826.31;4183305;28;20206;-81
2023/04/20 04:31:08;;;;;;;10.68;8.65;;;;;;;4.31;83.81;97834.97;4163498;28;20248;-81
2023/04/20 04:33:13;;;;;;;9.90;7.78;;;;;;;4.24;84.17;97831.03;4178469;28;20227;-81
2023/04/20 04:35:19;;;;;;;11.20;8.32;;;;;;;4.23;84.03;97831.09;4186172;28;20670;-81
2023/04/20 04:37:22;;;;;;;11.35;8.73;;;;;;;4.25;85.13;97834.44;4184812;28;20567;-81
2023/04/20 04:39:30;;;;;;;11.55;9.10;;;;;;;4.26;84.81;97839.53;4183058;28;20217;-81
2023/04/20 04:41:43;;;;;;;9.60;8.40;;;;;;;4.24;84.05;97825.88;4170182;28;20297;-81
2023/04/20 04:44:04;;;;;;;12.45;9.15;;;;;;;4.25;84.67;97831.84;4187046;28;20202;-81
2023/04/20 04:46:09;;;;;;;9.77;8.65;;;;;;;4.28;84.19;97823.97;4181108;28;20801;-81
2023/04/20 04:48:13;;;;;;;12.63;9.65;;;;;;;4.33;83.86;97825.44;4180234;28;20256;-81
2023/04/20 04:50:16;;;;;;;11.02;9.23;;;;;;;4.37;83.95;97826.94;4180872;28;20226;-81
2023/04/20 04:52:20;;;;;;;14.63;9.05;;;;;;;4.42;84.44;97817.25;4182924;28;20217;-81
2023/04/20 04:54:23;;;;;;;11.57;9.73;;;;;;;4.51;85.21;97828.84;4184918;28;20718;-81
2023/04/20 04:56:27;;;;;;;13.70;10.63;;;;;;;4.54;85.26;97824.41;4168911;28;20210;-81
2023/04/20 04:58:31;;;;;;;10.63;9.45;;;;;;;4.57;84.96;97824.25;4181279;28;20607;-81
2023/04/20 05:00:34;;;;;;;14.15;10.00;;;;;;;4.61;84.57;97824.91;4183011;28;20749;-81
2023/04/20 05:02:38;;;;;;;12.75;9.52;;;;;;;4.61;83.79;97828.31;4191653;28;20209;-82
2023/04/20 05:04:41;;;;;;;12.70;10.65;;;;;;;4.55;85.12;97825.22;4187951;28;20225;-81
2023/04/20 05:06:45;;;;;;;13.15;9.70;;;;;;;4.56;83.50;97832.88;4181381;28;20217;-81
2023/04/20 05:08:48;;;;;;;12.00;10.10;;;;;;;4.60;84.43;97829.25;4181360;28;20259;-81
2023/04/20 05:10:51;;;;;;;15.77;10.60;;;;;;;4.69;84.21;97829.63;4184133;28;20682;-81
2023/04/20 05:12:54;;;;;;;11.02;9.48;;;;;;;4.79;84.32;97842.91;4181728;28;20251;-82
2023/04/20 05:14:59;;;;;;;12.57;10.60;;;;;;;4.99;84.42;97842.75;4186887;28;20621;-80
2023/04/20 05:17:02;;;;;;;11.02;9.93;;;;;;;5.25;84.68;97851.69;4183454;28;20322;-81
2023/04/20 05:19:05;;;;;;;10.95;9.48;;;;;;;5.52;83.77;97854.59;4184698;28;20632;-81
2023/04/20 05:21:09;;;;;;;11.20;9.48;;;;;;;5.86;84.17;97852.75;4167949;28;20230;-81
2023/04/20 05:23:12;;;;;;;11.75;9.77;;;;;;;6.16;82.86;97860.56;4190128;28;20220;-81
2023/04/20 05:25:15;;;;;;;11.63;8.80;;;;;;;6.45;82.34;97866.69;4171035;28;20216;-81
2023/04/20 05:27:18;;;;;;;10.90;9.52;;;;;;;6.75;81.27;97871.81;4159265;28;20229;-81
2023/04/20 05:29:21;;;;;;;12.85;8.90;;;;;;;7.15;79.43;97882.38;4184640;28;20211;-81
2023/04/20 05:31:25;;;;;;;10.85;9.63;;;;;;;7.35;79.48;97876.91;4168756;28;20284;-81
2023/04/20 05:33:29;;;;;;;10.15;9.05;;;;;;;7.61;78.83;97878.78;4204961;28;20206;-82
2023/04/20 05:35:33;;;;;;;10.52;8.80;;;;;;;7.74;77.52;97877.09;4179871;28;20359;-81
2023/04/20 05:37:36;;;;;;;11.52;8.52;;;;;;;7.81;77.43;97873.19;4183475;28;20209;-81
2023/04/20 05:39:39;;;;;;;13.23;10.02;;;;;;;8.02;77.64;97873.53;4184163;28;20626;-81
2023/04/20 05:41:42;;;;;;;12.50;9.38;;;;;;;8.26;77.17;97876.44;4168455;28;20384;-81
2023/04/20 05:43:45;;;;;;;10.18;9.05;;;;;;;8.44;75.77;97881.28;4183972;28;20223;-81
2023/04/20 05:45:48;;;;;;;10.93;9.82;;;;;;;8.63;75.18;97887.81;4166902;28;20206;-81
2023/04/20 05:47:54;;;;;;;10.73;8.70;;;;;;;8.80;74.28;97884.16;4189103;28;20215;-81
2023/04/20 05:50:00;;;;;;;10.82;8.23;;;;;;;9.02;73.82;97888.69;4186705;28;20642;-81
2023/04/20 05:52:03;;;;;;;13.43;8.68;;;;;;;9.28;75.84;97892.19;4192819;28;20200;-81
2023/04/20 05:54:06;;;;;;;10.60;9.13;;;;;;;9.52;74.80;97897.41;4189941;28;20197;-80
2023/04/20 05:56:09;;;;;;;11.15;9.85;;;;;;;9.79;74.77;97889.47;4182271;28;20227;-81
2023/04/20 05:58:12;;;;;;;12.70;9.82;;;;;;;10.04;73.41;97899.00;4179003;28;20244;-82
2023/04/20 06:00:16;;;;;;;13.70;9.10;;;;;;;10.28;72.27;97893.81;4181643;28;20828;-85
2023/04/20 06:02:19;;;;;;;10.57;8.90;;;;;;;10.49;70.76;97903.56;4188605;28;20656;-85
2023/04/20 06:04:24;;;;;;;12.63;11.32;;;;;;;10.67;70.86;97904.88;4190032;28;21371;-84
2023/04/20 06:06:28;;;;;;;9.67;8.67;;;;;;;10.90;71.58;97903.09;4189337;28;20229;-85
2023/04/20 06:08:31;;;;;;;10.30;9.20;;;;;;;11.18;69.81;97912.34;4189870;28;20681;-85
2023/04/20 06:10:34;;;;;;;12.47;9.63;;;;;;;11.36;69.95;97910.03;4189587;28;20686;-86
2023/04/20 06:12:37;;;;;;;10.47;9.43;;;;;;;11.55;68.58;97910.38;4175579;28;21121;-84
2023/04/20 06:14:40;;;;;;;10.50;9.30;;;;;;;11.68;67.81;97902.44;4190530;28;20674;-84
2023/04/20 06:16:43;;;;;;;10.23;8.50;;;;;;;11.81;66.33;97904.81;4167056;28;20643;-83
2023/04/20 06:18:46;;;;;;;10.13;8.73;;;;;;;12.01;65.87;97906.78;4188281;28;22925;-80
2023/04/20 06:20:51;;;;;;;9.93;8.80;;;;;;;12.20;65.78;97899.16;4187499;28;21163;-80
2023/04/20 06:22:54;;;;;;;10.77;9.67;;;;;;;12.42;66.28;97899.16;4185388;28;21018;-80
2023/04/20 06:24:57;;;;;;;10.30;9.23;;;;;;;12.60;67.02;97903.75;4179580;28;21169;-83
2023/04/20 06:27:01;;;;;;;9.63;8.60;;;;;;;12.45;64.48;97897.13;4170973;28;20702;-82
2023/04/20 06:29:05;;;;;;;9.50;8.60;;;;;;;12.48;64.55;97891.66;4187495;28;20624;-83
2023/04/20 06:31:08;;;;;;;10.53;8.80;;;;;;;12.58;64.79;97889.13;4186057;28;20664;-85
2023/04/20 06:33:15;;;;;;;9.53;8.17;;;;;;;12.62;63.31;97890.56;4188326;28;20980;-86
2023/04/20 06:35:19;;;;;;;9.90;8.30;;;;;;;12.74;65.12;97891.22;4185970;28;21052;-86
2023/04/20 06:37:23;;;;;;;10.87;8.43;;;;;;;12.85;63.84;97893.00;4193093;28;20671;-86
2023/04/20 06:39:26;;;;;;;9.97;8.87;;;;;;;12.95;66.04;97900.00;4186653;28;21223;-86
2023/04/20 06:41:29;;;;;;;9.73;8.73;;;;;;;13.18;64.48;97894.56;4193214;28;20647;-86
2023/04/20 06:43:41;;;;;;;9.67;8.67;;;;;;;13.41;64.90;97898.75;4169696;28;21215;-86
2023/04/20 06:45:44;;;;;;;9.97;8.93;;;;;;;13.66;64.07;97899.19;4175288;28;20648;-85
2023/04/20 06:47:47;;;;;;;13.47;10.17;;;;;;;13.75;62.61;97892.34;4187496;28;20638;-85
2023/04/20 06:49:50;;;;;;;9.67;8.37;;;;;;;13.68;62.08;97892.03;4185461;28;21029;-85
2023/04/20 06:51:54;;;;;;;11.50;8.43;;;;;;;13.44;61.86;97892.41;4165452;28;20628;-86
2023/04/20 06:53:58;;;;;;;9.90;8.30;;;;;;;13.45;62.29;97889.66;4182313;28;21187;-85
2023/04/20 06:56:02;;;;;;;9.83;8.63;;;;;;;13.65;63.84;97887.06;4178351;28;20650;-86
2023/04/20 06:58:05;;;;;;;10.50;9.40;;;;;;;13.89;62.18;97894.63;4187216;28;20751;-82
2023/04/20 07:00:10;;;;;;;9.97;8.93;;;;;;;13.96;62.10;97882.69;4161329;28;20207;-81
2023/04/20 07:02:13;;;;;;;10.40;9.40;;;;;;;14.02;61.46;97880.34;4171258;28;20827;-82
2023/04/20 07:04:17;;;;;;;8.97;8.07;;;;;;;14.13;62.16;97884.72;4186047;28;20642;-82
2023/04/20 07:06:20;;;;;;;10.30;8.90;;;;;;;14.24;62.40;97880.22;4177070;28;20639;-83
2023/04/20 07:08:23;;;;;;;9.17;8.17;;;;;;;14.35;61.21;97886.19;4177715;28;20659;-82
2023/04/20 07:10:28;;;;;;;9.10;8.20;;;;;;;14.41;61.43;97888.28;4184278;28;20717;-82
2023/04/20 07:12:31;;;;;;;9.77;8.70;;;;;;;14.38;60.20;97883.31;4182768;28;21346;-82
2023/04/20 07:14:34;;;;;;;11.17;9.37;;;;;;;14.52;61.65;97896.03;4181584;28;21223;-82
2023/04/20 07:16:37;;;;;;;10.07;9.07;;;;;;;14.46;61.52;97877.38;4178658;28;20731;-82
2023/04/20 07:18:41;;;;;;;10.70;9.47;;;;;;;14.59;60.70;97879.63;4184216;28;20672;-82
2023/04/20 07:20:44;;;;;;;11.10;8.30;;;;;;;14.85;61.38;97883.41;4171871;28;20646;-82
2023/04/20 07:22:47;;;;;;;11.20;9.53;;;;;;;15.04;60.83;97887.88;4169644;28;20661;-82
2023/04/20 07:24:51;;;;;;;10.70;9.07;;;;;;;15.14;59.64;97879.03;4180704;28;20625;-82
2023/04/20 07:26:56;;;;;;;9.57;8.63;;;;;;;14.95;60.61;97880.81;4182310;28;20638;-83
2023/04/20 07:28:59;;;;;;;10.33;9.23;;;;;;;14.52;60.96;97879.47;4184420;28;21217;-83
2023/04/20 07:31:02;;;;;;;8.73;7.90;;;;;;;14.15;62.23;97863.47;4183323;28;20640;-82
2023/04/20 07:33:06;;;;;;;9.97;8.93;;;;;;;14.07;60.92;97864.25;4182284;28;20641;-83
2023/04/20 07:35:10;;;;;;;9.57;8.67;;;;;;;13.99;60.93;97862.25;4184160;28;20641;-83
2023/04/20 07:37:13;;;;;;;10.70;8.73;;;;;;;13.76;61.56;97860.78;4184732;28;20640;-83
2023/04/20 07:39:16;;;;;;;10.03;8.97;;;;;;;13.52;63.51;97858.56;4185618;28;20737;-83
2023/04/20 07:41:21;;;;;;;9.27;8.37;;;;;;;13.67;62.03;97856.31;4183346;28;20755;-83
2023/04/20 07:43:26;;;;;;;10.43;9.20;;;;;;;14.03;63.63;97865.47;4184719;28;20688;-83
2023/04/20 07:45:29;;;;;;;9.83;8.27;;;;;;;14.30;62.02;97869.19;4187296;28;20640;-83
2023/04/20 07:47:33;;;;;;;10.10;8.63;;;;;;;14.31;60.93;97876.09;4190136;28;20727;-83
2023/04/20 07:49:39;;;;;;;10.63;9.03;;;;;;;14.26;60.98;97873.03;4183872;28;20678;-83
2023/04/20 07:51:42;;;;;;;9.97;8.97;;;;;;;14.40;60.04;97870.91;4184210;28;21537;-84
2023/04/20 07:53:45;;;;;;;11.43;10.33;;;;;;;14.32;59.62;97867.25;4186413;28;20631;-83
2023/04/20 07:55:48;;;;;;;10.27;9.17;;;;;;;14.08;60.31;97864.13;4164907;28;20638;-83
2023/04/20 07:57:53;;;;;;;11.87;9.27;;;;;;;13.91;61.17;97866.50;4182392;28;21228;-83
2023/04/20 07:59:57;;;;;;;11.73;8.70;;;;;;;13.46;61.23;97861.69;4186542;28;20973;-84
2023/04/20 08:02:01;;;;;;;10.87;9.10;;;;;;;12.97;62.55;97844.91;4184623;28;20632;-83
2023/04/20 08:04:05;;;;;;;9.83;8.90;;;;;;;12.84;62.76;97852.13;4169896;28;20972;-84
2023/04/20 08:06:09;;;;;;;9.83;8.83;;;;;;;12.48;63.33;97841.09;4185622;28;20653;-83
2023/04/20 08:08:14;;;;;;;10.97;9.87;;;;;;;12.30;64.18;97842.59;4164577;28;20740;-83
2023/04/20 08:10:17;;;;;;;10.50;9.30;;;;;;;12.17;64.89;97848.91;4189335;28;20646;-83
2023/04/20 08:12:20;;;;;;;10.23;9.03;;;;;;;12.13;67.00;97837.00;4184210;28;20637;-83
2023/04/20 08:14:23;;;;;;;10.93;9.67;;;;;;;12.04;66.33;97841.19;4180154;28;20634;-84
2023/04/20 08:16:28;;;;;;;10.30;8.90;;;;;;;12.09;67.62;97839.03;4183116;28;20673;-83
2023/04/20 08:18:31;;;;;;;12.30;9.70;;;;;;;12.10;66.07;97837.25;4186487;28;20632;-83
2023/04/20 08:20:34;;;;;;;13.63;12.20;;;;;;;12.14;67.21;97838.69;4189976;28;20642;-83
2023/04/20 08:22:38;;;;;;;11.20;10.10;;;;;;;11.95;65.06;97834.06;4185974;28;20674;-84
2023/04/20 08:24:41;;;;;;;10.53;8.90;;;;;;;11.64;67.20;97833.09;4159221;28;20761;-84
2023/04/20 08:26:44;;;;;;;10.40;9.40;;;;;;;11.56;67.99;97832.84;4184693;28;20663;-83
2023/04/20 08:28:47;;;;;;;12.03;10.80;;;;;;;11.51;67.96;97825.34;4178682;28;21098;-84
2023/04/20 08:30:51;;;;;;;15.00;9.90;;;;;;;11.47;67.66;97825.69;4180761;28;20634;-84
2023/04/20 08:32:56;;;;;;;10.73;9.73;;;;;;;11.45;68.44;97830.19;4172409;28;20643;-83
2023/04/20 08:34:59;;;;;;;11.50;9.90;;;;;;;11.46;68.56;97827.47;4176408;28;20991;-82
2023/04/20 08:37:02;;;;;;;9.40;8.50;;;;;;;11.37;67.49;97824.72;4182491;28;21053;-84
2023/04/20 08:39:08;;;;;;;9.43;8.43;;;;;;;11.27;68.04;97826.34;4186889;28;21210;-83
2023/04/20 08:41:12;;;;;;;11.33;8.77;;;;;;;11.21;68.57;97826.00;4185155;28;20653;-83
2023/04/20 08:43:15;;;;;;;10.30;9.30;;;;;;;11.09;67.33;97827.72;4181209;28;20658;-83
2023/04/20 08:45:18;;;;;;;10.23;9.17;;;;;;;10.98;68.16;97832.09;4186118;28;20635;-83
2023/04/20 08:47:21;;;;;;;11.80;9.63;;;;;;;11.00;68.22;97831.00;4184184;28;20637;-83
2023/04/20 08:49:28;;;;;;;10.37;9.33;;;;;;;11.01;69.28;97834.47;4180262;28;20678;-83
2023/04/20 08:51:31;;;;;;;9.13;8.23;;;;;;;11.06;68.79;97835.78;4183798;28;20684;-83
2023/04/20 08:53:35;;;;;;;11.07;9.00;;;;;;;11.02;70.19;97831.75;4178905;28;20628;-84
2023/04/20 08:55:38;;;;;;;10.40;8.73;;;;;;;10.97;69.52;97836.47;4177971;28;20958;-86
2023/04/20 08:57:41;;;;;;;10.53;9.43;;;;;;;10.92;69.73;97830.75;4184061;28;20642;-83
2023/04/20 08:59:44;;;;;;;10.40;9.23;;;;;;;10.79;69.65;97823.13;4184798;28;20693;-83
2023/04/20 09:01:47;;;;;;;9.50;8.50;;;;;;;10.80;70.68;97824.78;4177197;28;20631;-83
2023/04/20 09:03:51;;;;;;;14.43;10.43;;;;;;;10.75;69.97;97811.25;4180238;28;20661;-83
2023/04/20 09:05:55;;;;;;;10.20;9.20;;;;;;;10.67;69.89;97819.63;4180752;28;20660;-83
2023/04/20 09:08:00;;;;;;;10.70;9.17;;;;;;;10.72;70.83;97827.09;4184019;28;20651;-83
2023/04/20 09:10:04;;;;;;;11.63;10.20;;;;;;;10.71;70.13;97825.47;4173064;28;20637;-82
2023/04/20 09:12:09;;;;;;;11.67;10.47;;;;;;;10.75;70.17;97822.53;4183582;28;20995;-82
2023/04/20 09:14:13;;;;;;;12.47;10.20;;;;;;;10.80;71.36;97824.78;4186612;28;20689;-82
2023/04/20 09:16:16;;;;;;;11.10;10.00;;;;;;;10.84;70.01;97832.28;4186987;28;20722;-83
2023/04/20 09:18:20;;;;;;;10.67;9.50;;;;;;;10.86;70.66;97826.00;4189202;28;20635;-83
2023/04/20 09:20:30;;;;;;;10.93;9.30;;;;;;;10.87;71.42;97814.63;4187013;28;20907;-83
2023/04/20 09:22:36;;;;;;;13.10;9.30;;;;;;;10.93;70.54;97822.00;4179549;28;21711;-82
2023/04/20 09:24:41;;;;;;;13.40;9.50;;;;;;;10.84;70.60;97824.47;4190820;28;20655;-83
2023/04/20 09:26:44;;;;;;;10.70;9.57;;;;;;;10.70;70.81;97813.38;4188924;28;20631;-82
2023/04/20 09:28:47;;;;;;;12.37;9.80;;;;;;;10.63;71.72;97818.19;4192270;28;20640;-83
2023/04/20 09:30:50;;;;;;;11.20;10.00;;;;;;;10.66;71.56;97811.91;4177641;28;20632;-82
2023/04/20 09:33:13;;;;;;;9.67;8.67;;;;;;;10.80;72.03;97813.41;4191650;28;21028;-83
2023/04/20 09:35:22;;;;;;;10.50;8.90;;;;;;;10.85;70.87;97808.69;4180426;28;20640;-82
2023/04/20 09:37:26;;;;;;;10.53;9.00;;;;;;;10.76;71.94;97807.69;4190150;28;20639;-83
2023/04/20 09:39:33;;;;;;;9.53;8.60;;;;;;;10.74;72.19;97809.59;4189754;28;20636;-83
2023/04/20 09:41:38;;;;;;;12.63;11.23;;;;;;;10.83;72.49;97807.97;4194125;28;20721;-82
2023/04/20 09:43:42;;;;;;;12.87;9.47;;;;;;;10.82;72.19;97810.69;4189217;28;21498;-83
2023/04/20 09:45:45;;;;;;;10.70;9.27;;;;;;;10.78;71.69;97801.44;4191302;28;21049;-83